Time;durP1;ratioP1;P1;durP2;ratioP2;P2;SDS_P1;SDS_P2;PMS_P1;PMS_P2;Temp;Humidity;BMP_temperature;BMP_pressure;BME280_temperature;BME280_humidity;BME280_pressure;Samples;Min_cycle;Max_cycle;Signal;HPM_P1;HPM_P2
2023/07/19 00:01:51;;;;;;;;;2.00;2.00;;;;;;;;5078572;28;9698;-85
2023/07/19 00:04:18;;;;;;;;;2.75;2.75;;;;;;;;5077634;28;8983;-86
2023/07/19 00:06:45;;;;;;;;;3.00;3.00;;;;;;;;5077643;28;8840;-84
2023/07/19 00:09:12;;;;;;;;;2.25;2.25;;;;;;;;5075633;28;8951;-85
2023/07/19 00:11:41;;;;;;;;;3.00;2.20;;;;;;;;5075654;28;8872;-84
2023/07/19 00:14:09;;;;;;;;;2.60;2.60;;;;;;;;5068542;28;8878;-85
2023/07/19 00:16:36;;;;;;;;;2.75;2.50;;;;;;;;5053707;28;8850;-84
2023/07/19 00:19:03;;;;;;;;;6.00;3.25;;;;;;;;5053312;28;8857;-84
2023/07/19 00:21:30;;;;;;;;;10.00;3.75;;;;;;;;5052829;28;8863;-85
2023/07/19 00:23:58;;;;;;;;;2.00;2.00;;;;;;;;5052788;28;8867;-86
2023/07/19 00:26:25;;;;;;;;;3.25;3.25;;;;;;;;5052989;28;8863;-84
2023/07/19 00:28:54;;;;;;;;;5.25;3.75;;;;;;;;5051495;28;8855;-86
2023/07/19 00:31:22;;;;;;;;;4.00;4.00;;;;;;;;5052290;28;8800;-82
2023/07/19 00:33:49;;;;;;;;;3.25;2.75;;;;;;;;5052625;28;8851;-86
2023/07/19 00:36:16;;;;;;;;;2.00;2.00;;;;;;;;5053104;28;8985;-84
2023/07/19 00:38:43;;;;;;;;;3.50;1.75;;;;;;;;5052561;28;8889;-89
2023/07/19 00:41:11;;;;;;;;;2.75;2.00;;;;;;;;5052974;28;8855;-86
2023/07/19 00:43:38;;;;;;;;;2.25;2.25;;;;;;;;5054708;28;8847;-88
2023/07/19 00:46:08;;;;;;;;;2.25;2.25;;;;;;;;5057954;28;8851;-87
2023/07/19 00:48:35;;;;;;;;;5.75;3.00;;;;;;;;5058038;28;8863;-88
2023/07/19 00:51:03;;;;;;;;;4.25;3.00;;;;;;;;5059106;28;8867;-91
2023/07/19 00:53:30;;;;;;;;;4.25;3.25;;;;;;;;5055586;28;8859;-83
2023/07/19 00:55:57;;;;;;;;;2.75;2.75;;;;;;;;5053793;28;8877;-88
2023/07/19 00:58:25;;;;;;;;;5.00;3.25;;;;;;;;5053336;28;8912;-91
2023/07/19 01:00:53;;;;;;;;;1.00;1.00;;;;;;;;5052280;28;8780;-89
2023/07/19 01:03:22;;;;;;;;;3.75;3.75;;;;;;;;5055152;28;8966;-91
2023/07/19 01:05:49;;;;;;;;;3.00;3.00;;;;;;;;5054666;28;8870;-90
2023/07/19 01:08:17;;;;;;;;;2.25;2.25;;;;;;;;5052444;28;8871;-93
2023/07/19 01:10:45;;;;;;;;;3.00;2.75;;;;;;;;5052526;28;8936;-92
2023/07/19 01:13:13;;;;;;;;;2.75;2.75;;;;;;;;5051280;28;8969;-85
2023/07/19 01:15:41;;;;;;;;;3.50;3.50;;;;;;;;5071411;28;8846;-86
2023/07/19 01:18:08;;;;;;;;;3.00;3.00;;;;;;;;5072450;28;8884;-89
2023/07/19 01:20:37;;;;;;;;;4.00;2.00;;;;;;;;5072092;28;8853;-88
2023/07/19 01:23:06;;;;;;;;;2.00;2.00;;;;;;;;5077056;28;8870;-87
2023/07/19 01:25:33;;;;;;;;;0.75;0.75;;;;;;;;5077854;28;8868;-88
2023/07/19 01:28:01;;;;;;;;;2.75;2.75;;;;;;;;5077727;28;8852;-88
2023/07/19 01:30:28;;;;;;;;;3.00;3.00;;;;;;;;5075071;28;8773;-92
2023/07/19 01:32:56;;;;;;;;;3.00;3.00;;;;;;;;5071946;28;8863;-86
2023/07/19 01:35:23;;;;;;;;;3.00;1.75;;;;;;;;5071413;28;8837;-89
2023/07/19 01:37:50;;;;;;;;;4.25;3.00;;;;;;;;5071546;28;8865;-89
2023/07/19 01:40:19;;;;;;;;;2.25;2.25;;;;;;;;5071729;28;9802;-90
2023/07/19 01:42:47;;;;;;;;;2.75;2.75;;;;;;;;5071591;28;8875;-89
2023/07/19 01:45:14;;;;;;;;;3.75;3.75;;;;;;;;5071896;28;9025;-84
2023/07/19 01:47:41;;;;;;;;;5.25;3.25;;;;;;;;5071605;28;8983;-92
2023/07/19 01:50:09;;;;;;;;;4.00;3.00;;;;;;;;5071984;28;8872;-89
2023/07/19 01:52:36;;;;;;;;;3.50;3.50;;;;;;;;5071678;28;8886;-91
2023/07/19 01:55:04;;;;;;;;;2.00;2.00;;;;;;;;5071674;28;8984;-89
2023/07/19 01:57:33;;;;;;;;;3.00;3.00;;;;;;;;5071629;28;8867;-89
2023/07/19 02:00:00;;;;;;;;;4.00;2.50;;;;;;;;5071984;28;8963;-91
2023/07/19 02:02:27;;;;;;;;;4.25;4.00;;;;;;;;5075024;28;8789;-89
2023/07/19 02:04:55;;;;;;;;;2.25;2.25;;;;;;;;5078056;28;8973;-93
2023/07/19 02:07:22;;;;;;;;;3.50;3.00;;;;;;;;5077751;28;8883;-87
2023/07/19 02:09:49;;;;;;;;;4.50;3.00;;;;;;;;5077061;28;8852;-90
2023/07/19 02:12:16;;;;;;;;;4.25;2.00;;;;;;;;5072014;28;8974;-92
2023/07/19 02:14:45;;;;;;;;;6.00;3.50;;;;;;;;5059865;28;8855;-91
2023/07/19 02:17:12;;;;;;;;;2.25;2.25;;;;;;;;5052689;28;8938;-93
2023/07/19 02:19:39;;;;;;;;;3.50;3.50;;;;;;;;5053390;28;8882;-92
2023/07/19 02:22:07;;;;;;;;;6.25;3.25;;;;;;;;5054315;28;8867;-94
2023/07/19 02:24:34;;;;;;;;;4.25;4.25;;;;;;;;5055058;28;8843;-92
2023/07/19 02:27:02;;;;;;;;;3.00;3.00;;;;;;;;5054675;28;8835;-92
2023/07/19 02:29:29;;;;;;;;;4.75;4.75;;;;;;;;5053891;28;8871;-90
2023/07/19 02:32:01;;;;;;;;;4.25;4.25;;;;;;;;5052128;28;8775;-92
2023/07/19 02:34:28;;;;;;;;;3.25;2.75;;;;;;;;5051723;28;8851;-90
2023/07/19 02:36:58;;;;;;;;;3.75;3.75;;;;;;;;5051179;28;8981;-88
2023/07/19 02:39:27;;;;;;;;;3.00;3.00;;;;;;;;5050952;28;9001;-87
2023/07/19 02:41:55;;;;;;;;;4.00;4.00;;;;;;;;5054006;28;8839;-83
2023/07/19 02:44:22;;;;;;;;;3.75;3.75;;;;;;;;5056240;28;8847;-91
2023/07/19 02:46:49;;;;;;;;;3.75;3.00;;;;;;;;5056101;28;8867;-89
2023/07/19 02:49:18;;;;;;;;;5.25;4.00;;;;;;;;5053551;28;8933;-89
2023/07/19 02:51:48;;;;;;;;;5.00;5.00;;;;;;;;5050983;28;8863;-87
2023/07/19 02:54:15;;;;;;;;;4.00;3.25;;;;;;;;5051043;28;8863;-91
2023/07/19 02:56:42;;;;;;;;;3.00;2.75;;;;;;;;5048937;28;8882;-90
2023/07/19 02:59:10;;;;;;;;;2.75;2.75;;;;;;;;5050459;28;8997;-93
2023/07/19 03:01:37;;;;;;;;;3.75;3.75;;;;;;;;5050416;28;8783;-92
2023/07/19 03:04:06;;;;;;;;;5.50;5.50;;;;;;;;5051323;28;8951;-87
2023/07/19 03:06:35;;;;;;;;;4.00;4.00;;;;;;;;5050702;28;8869;-93
2023/07/19 03:09:02;;;;;;;;;4.50;3.75;;;;;;;;5051434;28;8847;-89
2023/07/19 03:11:30;;;;;;;;;5.00;4.00;;;;;;;;5054156;28;8972;-87
2023/07/19 03:13:57;;;;;;;;;6.00;4.25;;;;;;;;5057169;28;9010;-85
2023/07/19 03:16:25;;;;;;;;;2.25;2.25;;;;;;;;5070065;28;8860;-84
2023/07/19 03:18:52;;;;;;;;;6.00;3.00;;;;;;;;5070333;28;9011;-84
2023/07/19 03:21:20;;;;;;;;;3.75;3.75;;;;;;;;5073795;28;8868;-83
2023/07/19 03:23:50;;;;;;;;;4.00;3.00;;;;;;;;5075029;28;8844;-86
2023/07/19 03:26:18;;;;;;;;;5.00;3.00;;;;;;;;5072854;28;8976;-83
2023/07/19 03:28:45;;;;;;;;;4.00;4.00;;;;;;;;5075569;28;8975;-87
2023/07/19 03:31:13;;;;;;;;;1.25;1.25;;;;;;;;5073774;28;8781;-85
2023/07/19 03:33:40;;;;;;;;;3.25;3.00;;;;;;;;5074189;28;9018;-87
2023/07/19 03:36:07;;;;;;;;;3.75;3.25;;;;;;;;5073675;28;8862;-87
2023/07/19 03:38:35;;;;;;;;;2.50;2.00;;;;;;;;5073921;28;8967;-89
2023/07/19 03:41:07;;;;;;;;;1.75;1.75;;;;;;;;5074100;28;8988;-89
2023/07/19 03:43:34;;;;;;;;;2.75;2.00;;;;;;;;5072898;28;8864;-88
2023/07/19 03:46:01;;;;;;;;;1.00;1.00;;;;;;;;5073911;28;8979;-88
2023/07/19 03:48:29;;;;;;;;;1.75;1.75;;;;;;;;5072002;28;8860;-86
2023/07/19 03:50:57;;;;;;;;;2.75;2.75;;;;;;;;5073348;28;8857;-88
2023/07/19 03:53:25;;;;;;;;;1.50;0.50;;;;;;;;5073661;28;8853;-88
2023/07/19 03:55:56;;;;;;;;;2.25;2.00;;;;;;;;5073658;28;8860;-90
2023/07/19 03:58:25;;;;;;;;;3.50;2.00;;;;;;;;5074009;28;8922;-89
2023/07/19 04:00:53;;;;;;;;;2.00;2.00;;;;;;;;5075054;28;8908;-86
2023/07/19 04:03:20;;;;;;;;;2.50;2.00;;;;;;;;5077241;28;9016;-85
2023/07/19 04:05:48;;;;;;;;;1.75;1.75;;;;;;;;5078320;28;8955;-86
2023/07/19 04:08:16;;;;;;;;;2.50;2.50;;;;;;;;5077484;28;8861;-77
2023/07/19 04:10:44;;;;;;;;;2.00;2.00;;;;;;;;5075574;28;9643;-75
2023/07/19 04:13:12;;;;;;;;;2.00;2.00;;;;;;;;5072530;28;8860;-77
2023/07/19 04:15:41;;;;;;;;;3.50;2.00;;;;;;;;5052738;28;8865;-80
2023/07/19 04:18:08;;;;;;;;;2.25;2.25;;;;;;;;5052371;28;8855;-83
2023/07/19 04:20:36;;;;;;;;;1.50;1.50;;;;;;;;5052313;28;8847;-84
2023/07/19 04:23:03;;;;;;;;;2.00;2.00;;;;;;;;5052002;28;8865;-79
2023/07/19 04:25:31;;;;;;;;;2.75;2.75;;;;;;;;5051829;28;8909;-82
2023/07/19 04:27:58;;;;;;;;;1.75;1.75;;;;;;;;5052114;28;8847;-82
2023/07/19 04:30:25;;;;;;;;;1.00;1.00;;;;;;;;5051591;28;8756;-79
2023/07/19 04:32:55;;;;;;;;;1.75;1.75;;;;;;;;5051889;28;8877;-77
2023/07/19 04:35:23;;;;;;;;;2.50;1.75;;;;;;;;5052009;28;8874;-81
2023/07/19 04:37:50;;;;;;;;;1.75;1.75;;;;;;;;5051205;28;8871;-83
2023/07/19 04:40:18;;;;;;;;;2.50;2.50;;;;;;;;5053246;28;8839;-81
2023/07/19 04:42:45;;;;;;;;;3.50;2.25;;;;;;;;5052570;28;8857;-83
2023/07/19 04:45:13;;;;;;;;;1.75;1.00;;;;;;;;5052056;28;8865;-78
2023/07/19 04:47:40;;;;;;;;;1.25;1.25;;;;;;;;5051677;28;9227;-81
2023/07/19 04:50:12;;;;;;;;;1.00;1.00;;;;;;;;5051885;28;8979;-83
2023/07/19 04:52:39;;;;;;;;;1.00;1.00;;;;;;;;5051833;28;8889;-79
2023/07/19 04:55:08;;;;;;;;;2.00;2.00;;;;;;;;5051312;28;8867;-76
2023/07/19 04:57:35;;;;;;;;;2.25;2.25;;;;;;;;5052373;28;8847;-76
2023/07/19 05:00:04;;;;;;;;;1.00;1.00;;;;;;;;5052476;28;8855;-77
2023/07/19 05:02:32;;;;;;;;;1.00;1.00;;;;;;;;5053202;28;8779;-78
2023/07/19 05:05:02;;;;;;;;;1.00;1.00;;;;;;;;5052611;28;8962;-77
2023/07/19 05:07:30;;;;;;;;;3.75;2.00;;;;;;;;5051664;28;8855;-78
2023/07/19 05:09:58;;;;;;;;;1.25;1.25;;;;;;;;5050732;28;8851;-81
2023/07/19 05:12:25;;;;;;;;;2.00;2.00;;;;;;;;5050844;28;8952;-80
2023/07/19 05:14:52;;;;;;;;;2.00;2.00;;;;;;;;5063569;28;8871;-80
2023/07/19 05:17:19;;;;;;;;;2.75;2.75;;;;;;;;5071754;28;8971;-79
2023/07/19 05:19:47;;;;;;;;;2.75;2.75;;;;;;;;5070861;28;9021;-76
2023/07/19 05:22:14;;;;;;;;;3.50;3.50;;;;;;;;5071053;28;9254;-81
2023/07/19 05:24:43;;;;;;;;;1.75;1.75;;;;;;;;5071090;28;9551;-82
2023/07/19 05:27:15;;;;;;;;;3.25;3.25;;;;;;;;5070764;28;8933;-82
2023/07/19 05:29:43;;;;;;;;;2.25;2.25;;;;;;;;5071025;28;8856;-82
2023/07/19 05:32:10;;;;;;;;;3.50;2.00;;;;;;;;5070593;28;8803;-83
2023/07/19 05:34:37;;;;;;;;;2.25;2.00;;;;;;;;5072046;28;8836;-79
2023/07/19 05:37:06;;;;;;;;;2.75;1.75;;;;;;;;5072651;28;8890;-78
2023/07/19 05:39:36;;;;;;;;;3.75;2.00;;;;;;;;5072358;28;8856;-82
2023/07/19 05:42:08;;;;;;;;;2.25;2.25;;;;;;;;5071176;28;8963;-82
2023/07/19 05:44:35;;;;;;;;;3.25;2.75;;;;;;;;5070488;28;8859;-78
2023/07/19 05:47:02;;;;;;;;;1.50;1.50;;;;;;;;5069975;28;8860;-80
2023/07/19 05:49:29;;;;;;;;;2.00;2.00;;;;;;;;5068954;28;8883;-77
2023/07/19 05:51:57;;;;;;;;;2.75;2.75;;;;;;;;5069995;28;8976;-75
2023/07/19 05:54:24;;;;;;;;;2.00;2.00;;;;;;;;5070120;28;9630;-76
2023/07/19 05:56:51;;;;;;;;;2.00;2.00;;;;;;;;5069751;28;8864;-76
2023/07/19 05:59:20;;;;;;;;;2.50;1.25;;;;;;;;5069770;28;8840;-76
2023/07/19 06:01:47;;;;;;;;;1.00;1.00;;;;;;;;5069141;28;8911;-76
2023/07/19 06:04:14;;;;;;;;;5.75;1.50;;;;;;;;5069877;28;8867;-76
2023/07/19 06:06:42;;;;;;;;;4.00;2.00;;;;;;;;5070520;28;8864;-81
2023/07/19 06:09:09;;;;;;;;;1.75;1.00;;;;;;;;5069875;28;8879;-77
2023/07/19 06:11:36;;;;;;;;;4.00;2.00;;;;;;;;5070376;28;8844;-78
2023/07/19 06:14:05;;;;;;;;;1.00;1.00;;;;;;;;5064470;28;8849;-78
2023/07/19 06:16:36;;;;;;;;;3.00;1.75;;;;;;;;5050464;28;8878;-78
2023/07/19 06:19:03;;;;;;;;;1.00;1.00;;;;;;;;5049911;28;8836;-78
2023/07/19 06:21:37;;;;;;;;;0.75;0.75;;;;;;;;5051082;28;8874;-79
2023/07/19 06:24:15;;;;;;;;;3.00;1.50;;;;;;;;5049127;28;8867;-76
2023/07/19 06:26:48;;;;;;;;;0.00;0.00;;;;;;;;5050342;28;9664;-80
2023/07/19 06:29:15;;;;;;;;;1.00;1.00;;;;;;;;5049935;28;9021;-81
2023/07/19 06:31:43;;;;;;;;;1.00;1.00;;;;;;;;5049705;28;8914;-83
2023/07/19 06:34:11;;;;;;;;;1.00;1.00;;;;;;;;5050217;28;8986;-77
2023/07/19 06:36:38;;;;;;;;;1.50;1.00;;;;;;;;5049995;28;8839;-78
2023/07/19 06:39:06;;;;;;;;;1.25;1.25;;;;;;;;5050709;28;8855;-81
2023/07/19 06:41:33;;;;;;;;;1.75;1.75;;;;;;;;5052127;28;8878;-86
2023/07/19 06:44:00;;;;;;;;;2.00;2.00;;;;;;;;5053071;28;8835;-85
2023/07/19 06:46:27;;;;;;;;;0.75;0.75;;;;;;;;5051100;28;8970;-81
2023/07/19 06:48:56;;;;;;;;;2.00;0.50;;;;;;;;5051331;28;8863;-92
2023/07/19 06:51:23;;;;;;;;;1.00;1.00;;;;;;;;5052267;28;8863;-92
2023/07/19 06:53:50;;;;;;;;;1.00;1.00;;;;;;;;5050410;28;8855;-90
2023/07/19 06:56:18;;;;;;;;;1.25;1.25;;;;;;;;5052916;28;8855;-89
2023/07/19 06:58:45;;;;;;;;;1.25;1.25;;;;;;;;5051354;28;8971;-93
2023/07/19 07:01:13;;;;;;;;;1.75;0.25;;;;;;;;5050011;28;8822;-87
2023/07/19 07:03:40;;;;;;;;;1.00;1.00;;;;;;;;5052354;28;8936;-90
2023/07/19 07:06:08;;;;;;;;;1.00;1.00;;;;;;;;5053005;28;8860;-94
2023/07/19 07:08:36;;;;;;;;;0.00;0.00;;;;;;;;5057941;28;8859;-95
2023/07/19 07:11:04;;;;;;;;;1.00;1.00;;;;;;;;5057962;28;9006;-94
2023/07/19 07:13:31;;;;;;;;;0.00;0.00;;;;;;;;5056933;28;8885;-85
2023/07/19 07:15:59;;;;;;;;;0.75;0.75;;;;;;;;5073643;28;8882;-85
2023/07/19 07:18:26;;;;;;;;;2.75;1.25;;;;;;;;5074350;28;9658;-85
2023/07/19 07:20:54;;;;;;;;;1.50;1.50;;;;;;;;5071596;28;8856;-85
2023/07/19 07:23:22;;;;;;;;;2.00;1.75;;;;;;;;5070919;28;8886;-83
2023/07/19 07:25:53;;;;;;;;;2.00;2.00;;;;;;;;5069313;28;8860;-80
2023/07/19 07:28:20;;;;;;;;;1.20;1.20;;;;;;;;5069581;28;8856;-86
2023/07/19 07:30:47;;;;;;;;;1.75;1.75;;;;;;;;5068653;28;8788;-81
2023/07/19 07:33:15;;;;;;;;;1.20;1.20;;;;;;;;5069014;28;8988;-82
2023/07/19 07:35:42;;;;;;;;;2.00;2.00;;;;;;;;5068762;28;8894;-79
2023/07/19 07:38:09;;;;;;;;;2.80;1.00;;;;;;;;5068490;28;8848;-81
2023/07/19 07:40:38;;;;;;;;;2.00;2.00;;;;;;;;5068881;28;8980;-78
2023/07/19 07:43:05;;;;;;;;;3.20;2.00;;;;;;;;5068458;28;8836;-75
2023/07/19 07:45:32;;;;;;;;;2.60;2.60;;;;;;;;5069125;28;8857;-79
2023/07/19 07:48:00;;;;;;;;;2.80;2.80;;;;;;;;5069001;28;8860;-80
2023/07/19 07:50:27;;;;;;;;;3.80;2.00;;;;;;;;5068849;28;9562;-75
2023/07/19 07:52:54;;;;;;;;;3.00;3.00;;;;;;;;5068695;28;8864;-78
2023/07/19 07:55:21;;;;;;;;;2.60;2.60;;;;;;;;5070186;28;8868;-75
2023/07/19 07:57:50;;;;;;;;;2.40;2.40;;;;;;;;5070280;28;8975;-82
2023/07/19 08:00:19;;;;;;;;;5.20;3.60;;;;;;;;5069575;28;8840;-83
2023/07/19 08:02:46;;;;;;;;;4.20;3.40;;;;;;;;5069306;28;8852;-79
2023/07/19 08:05:13;;;;;;;;;4.60;4.60;;;;;;;;5068696;28;8872;-86
2023/07/19 08:07:43;;;;;;;;;1.60;1.20;;;;;;;;5068483;28;9718;-77
2023/07/19 08:10:13;;;;;;;;;2.80;2.80;;;;;;;;5068742;28;8858;-86
2023/07/19 08:12:40;;;;;;;;;2.60;2.60;;;;;;;;5069353;28;8925;-82
2023/07/19 08:15:10;;;;;;;;;3.80;3.80;;;;;;;;5058733;28;8919;-83
2023/07/19 08:17:37;;;;;;;;;3.00;1.40;;;;;;;;5052511;28;8869;-85
2023/07/19 08:20:09;;;;;;;;;2.00;2.00;;;;;;;;5053055;28;8882;-85
2023/07/19 08:22:37;;;;;;;;;3.00;3.00;;;;;;;;5052967;28;8843;-88
2023/07/19 08:25:06;;;;;;;;;2.60;2.60;;;;;;;;5052277;28;8870;-82
2023/07/19 08:27:34;;;;;;;;;2.40;2.40;;;;;;;;5051930;28;8881;-78
2023/07/19 08:30:04;;;;;;;;;3.80;2.80;;;;;;;;5051950;28;8852;-83
2023/07/19 08:32:34;;;;;;;;;3.40;3.40;;;;;;;;5051625;28;8799;-78
2023/07/19 08:35:02;;;;;;;;;3.00;3.00;;;;;;;;5052943;28;8885;-78
2023/07/19 08:37:29;;;;;;;;;4.60;4.60;;;;;;;;5052945;28;8855;-82
2023/07/19 08:39:57;;;;;;;;;3.80;3.80;;;;;;;;5052713;28;8859;-82
2023/07/19 08:42:24;;;;;;;;;4.40;4.40;;;;;;;;5052730;28;8862;-82
2023/07/19 08:44:51;;;;;;;;;3.80;3.80;;;;;;;;5053411;28;8855;-81
2023/07/19 08:47:21;;;;;;;;;4.00;4.00;;;;;;;;5053829;28;8967;-81
2023/07/19 08:49:50;;;;;;;;;4.00;4.00;;;;;;;;5052820;28;8858;-82
2023/07/19 08:52:17;;;;;;;;;5.00;5.00;;;;;;;;5052317;28;8847;-82
2023/07/19 08:54:45;;;;;;;;;7.00;5.80;;;;;;;;5051357;28;8875;-79
2023/07/19 08:57:12;;;;;;;;;5.80;5.20;;;;;;;;5051332;28;8871;-81
2023/07/19 08:59:39;;;;;;;;;8.00;8.00;;;;;;;;5050967;28;9781;-77
2023/07/19 09:02:07;;;;;;;;;3.00;3.00;;;;;;;;5050317;28;8825;-78
2023/07/19 09:04:36;;;;;;;;;7.00;7.00;;;;;;;;5050678;28;8874;-73
2023/07/19 09:07:06;;;;;;;;;7.00;6.00;;;;;;;;5050753;28;8855;-73
2023/07/19 09:09:33;;;;;;;;;9.00;6.00;;;;;;;;5050932;28;8885;-80
2023/07/19 09:12:01;;;;;;;;;4.00;4.00;;;;;;;;5051982;28;8863;-76
2023/07/19 09:14:37;;;;;;;;;8.80;7.40;;;;;;;;5061931;28;8870;-76
2023/07/19 09:17:06;;;;;;;;;9.00;8.80;;;;;;;;5071093;28;8841;-73
2023/07/19 09:19:38;;;;;;;;;8.80;8.80;;;;;;;;5071300;28;8849;-81
2023/07/19 09:22:07;;;;;;;;;7.60;6.80;;;;;;;;5070693;28;8836;-76
2023/07/19 09:24:35;;;;;;;;;6.00;6.00;;;;;;;;5073131;28;8857;-73
2023/07/19 09:27:02;;;;;;;;;5.20;5.20;;;;;;;;5071545;28;8845;-74
2023/07/19 09:29:31;;;;;;;;;5.00;5.00;;;;;;;;5070793;28;8957;-78
2023/07/19 09:32:00;;;;;;;;;5.20;5.20;;;;;;;;5069960;28;8911;-82
2023/07/19 09:34:28;;;;;;;;;3.40;3.40;;;;;;;;5072133;28;8861;-77
2023/07/19 09:36:56;;;;;;;;;3.80;3.80;;;;;;;;5070119;28;8849;-74
2023/07/19 09:39:24;;;;;;;;;4.80;4.80;;;;;;;;5070332;28;8910;-75
2023/07/19 09:41:52;;;;;;;;;5.00;5.00;;;;;;;;5069989;28;8852;-76
2023/07/19 09:44:20;;;;;;;;;5.20;5.20;;;;;;;;5070350;28;8848;-75
2023/07/19 09:46:47;;;;;;;;;4.40;4.40;;;;;;;;5069777;28;8890;-81
2023/07/19 09:49:14;;;;;;;;;5.40;5.40;;;;;;;;5070238;28;8861;-81
2023/07/19 09:51:43;;;;;;;;;2.80;2.80;;;;;;;;5070160;28;8973;-80
2023/07/19 09:54:12;;;;;;;;;2.40;2.20;;;;;;;;5069633;28;8864;-79
2023/07/19 09:56:41;;;;;;;;;2.00;2.00;;;;;;;;5070185;28;8864;-77
2023/07/19 09:59:12;;;;;;;;;1.60;1.60;;;;;;;;5069589;28;8844;-78
2023/07/19 10:01:39;;;;;;;;;3.80;3.20;;;;;;;;5069707;28;8915;-78
2023/07/19 10:04:23;;;;;;;;;2.00;2.00;;;;;;;;5069422;28;8953;-73
2023/07/19 10:06:51;;;;;;;;;2.80;2.80;;;;;;;;5069617;28;8995;-76
2023/07/19 10:09:36;;;;;;;;;2.40;2.40;;;;;;;;5069856;28;8886;-77
2023/07/19 10:12:08;;;;;;;;;2.40;2.40;;;;;;;;5070479;28;8846;-76
2023/07/19 10:14:36;;;;;;;;;3.00;3.00;;;;;;;;5061157;28;8832;-77
2023/07/19 10:17:05;;;;;;;;;2.80;1.40;;;;;;;;5051950;28;8863;-85
2023/07/19 10:19:36;;;;;;;;;2.80;2.80;;;;;;;;5054361;28;8866;-76
2023/07/19 10:22:05;;;;;;;;;4.00;2.80;;;;;;;;5054624;28;8878;-77
2023/07/19 10:24:33;;;;;;;;;1.60;1.60;;;;;;;;5051859;28;8855;-78
2023/07/19 10:27:06;;;;;;;;;1.20;1.20;;;;;;;;5050848;28;8969;-77
2023/07/19 10:29:41;;;;;;;;;1.80;1.80;;;;;;;;5055330;28;8851;-78
2023/07/19 10:32:09;;;;;;;;;0.80;0.80;;;;;;;;5051021;28;8803;-75
2023/07/19 10:34:36;;;;;;;;;2.20;2.20;;;;;;;;5049382;28;8878;-76
2023/07/19 10:37:04;;;;;;;;;2.00;1.60;;;;;;;;5049444;28;9018;-77
2023/07/19 10:39:31;;;;;;;;;1.20;1.20;;;;;;;;5050679;28;8855;-75
2023/07/19 10:41:59;;;;;;;;;1.00;1.00;;;;;;;;5052906;28;9435;-76
2023/07/19 10:44:28;;;;;;;;;3.80;3.80;;;;;;;;5051373;28;8847;-76
2023/07/19 10:46:55;;;;;;;;;3.80;1.80;;;;;;;;5048751;28;8843;-78
2023/07/19 10:49:23;;;;;;;;;2.20;2.20;;;;;;;;5048919;28;8839;-76
2023/07/19 10:51:54;;;;;;;;;2.00;2.00;;;;;;;;5048122;28;8851;-77
2023/07/19 10:54:22;;;;;;;;;1.20;1.20;;;;;;;;5049072;28;8870;-79
2023/07/19 10:56:50;;;;;;;;;2.20;1.80;;;;;;;;5048533;28;8957;-76
2023/07/19 10:59:18;;;;;;;;;2.80;2.80;;;;;;;;5049263;28;8867;-78
2023/07/19 11:01:48;;;;;;;;;2.20;2.20;;;;;;;;5048249;28;8811;-81
2023/07/19 11:04:18;;;;;;;;;0.20;0.20;;;;;;;;5049122;28;8851;-76
2023/07/19 11:06:55;;;;;;;;;1.80;1.60;;;;;;;;5049054;28;9001;-77
2023/07/19 11:09:23;;;;;;;;;1.60;1.60;;;;;;;;5049060;28;8869;-78
2023/07/19 11:11:51;;;;;;;;;1.80;1.80;;;;;;;;5048698;28;8862;-78
2023/07/19 11:14:31;;;;;;;;;1.80;1.20;;;;;;;;5056329;28;8983;-76
2023/07/19 11:17:00;;;;;;;;;1.20;1.20;;;;;;;;5068573;28;8872;-77
2023/07/19 11:19:38;;;;;;;;;1.60;1.60;;;;;;;;5069275;28;8872;-77
2023/07/19 11:22:05;;;;;;;;;2.20;2.20;;;;;;;;5068774;28;8848;-77
2023/07/19 11:24:37;;;;;;;;;2.80;2.80;;;;;;;;5069023;28;8999;-77
2023/07/19 11:27:06;;;;;;;;;2.20;2.20;;;;;;;;5069354;28;8880;-83
2023/07/19 11:29:33;;;;;;;;;2.20;2.20;;;;;;;;5071045;28;8841;-84
2023/07/19 11:32:23;;;;;;;;;3.20;3.20;;;;;;;;5069094;28;8807;-82
2023/07/19 11:34:53;;;;;;;;;1.20;1.20;;;;;;;;5069072;28;8868;-84
2023/07/19 11:37:21;;;;;;;;;4.20;2.60;;;;;;;;5069412;28;8848;-89
2023/07/19 11:39:50;;;;;;;;;2.40;2.40;;;;;;;;5070014;28;8879;-90
2023/07/19 11:42:41;;;;;;;;;4.00;4.00;;;;;;;;5069259;28;8867;-86
2023/07/19 11:45:10;;;;;;;;;2.20;2.20;;;;;;;;5069357;28;8880;-83
2023/07/19 11:47:39;;;;;;;;;1.80;1.80;;;;;;;;5071437;28;8856;-84
2023/07/19 11:50:07;;;;;;;;;3.80;3.80;;;;;;;;5073247;28;8979;-82
2023/07/19 11:52:44;;;;;;;;;2.80;2.80;;;;;;;;5073545;28;8840;-84
2023/07/19 11:55:12;;;;;;;;;2.80;2.80;;;;;;;;5074087;28;8900;-85
2023/07/19 11:57:39;;;;;;;;;2.80;2.80;;;;;;;;5075115;28;8891;-84
2023/07/19 12:00:08;;;;;;;;;4.80;4.80;;;;;;;;5073380;28;8876;-84
2023/07/19 12:02:35;;;;;;;;;4.40;4.40;;;;;;;;5073896;28;8947;-78
2023/07/19 12:05:06;;;;;;;;;6.80;5.80;;;;;;;;5072590;28;9257;-83
2023/07/19 12:07:33;;;;;;;;;3.80;3.80;;;;;;;;5072320;28;8941;-80
2023/07/19 12:10:03;;;;;;;;;4.80;4.80;;;;;;;;5072066;28;8975;-79
2023/07/19 12:12:30;;;;;;;;;4.60;4.60;;;;;;;;5072454;28;8857;-78
2023/07/19 12:14:59;;;;;;;;;5.20;5.20;;;;;;;;5058152;28;8878;-77
2023/07/19 12:17:27;;;;;;;;;4.80;4.80;;;;;;;;5051878;28;8867;-78
2023/07/19 12:19:54;;;;;;;;;5.20;5.20;;;;;;;;5051611;28;9657;-83
2023/07/19 12:22:22;;;;;;;;;6.40;6.00;;;;;;;;5051900;28;8853;-82
2023/07/19 12:24:50;;;;;;;;;4.80;4.80;;;;;;;;5051554;28;8986;-75
2023/07/19 12:27:18;;;;;;;;;4.00;4.00;;;;;;;;5051684;28;8981;-77
2023/07/19 12:29:45;;;;;;;;;4.60;4.60;;;;;;;;5052058;28;8885;-79
2023/07/19 12:32:13;;;;;;;;;3.80;3.80;;;;;;;;5051724;28;8796;-84
2023/07/19 12:34:40;;;;;;;;;4.40;4.40;;;;;;;;5052114;28;8866;-76
2023/07/19 12:37:07;;;;;;;;;5.00;5.00;;;;;;;;5052850;28;8986;-74
2023/07/19 12:39:36;;;;;;;;;4.00;4.00;;;;;;;;5051762;28;8855;-77
2023/07/19 12:42:04;;;;;;;;;5.80;5.80;;;;;;;;5050982;28;8863;-75
2023/07/19 12:44:32;;;;;;;;;6.00;4.00;;;;;;;;5051464;28;8861;-76
2023/07/19 12:46:59;;;;;;;;;5.60;5.60;;;;;;;;5051800;28;8871;-74
2023/07/19 12:49:26;;;;;;;;;8.60;6.60;;;;;;;;5051562;28;8840;-76
2023/07/19 12:51:54;;;;;;;;;6.60;5.00;;;;;;;;5051683;28;8835;-78
2023/07/19 12:54:21;;;;;;;;;6.40;5.00;;;;;;;;5052392;28;8889;-76
2023/07/19 12:56:49;;;;;;;;;5.80;5.80;;;;;;;;5052879;28;8847;-82
2023/07/19 12:59:17;;;;;;;;;7.40;5.20;;;;;;;;5052711;28;8855;-82
2023/07/19 13:01:44;;;;;;;;;3.20;3.20;;;;;;;;5052319;28;8910;-81
2023/07/19 13:04:11;;;;;;;;;4.00;4.00;;;;;;;;5051821;28;8890;-76
2023/07/19 13:06:39;;;;;;;;;6.60;4.20;;;;;;;;5050963;28;8981;-76
2023/07/19 13:09:07;;;;;;;;;4.00;4.00;;;;;;;;5050662;28;8855;-77
2023/07/19 13:11:35;;;;;;;;;5.80;5.80;;;;;;;;5051249;28;8843;-74
2023/07/19 13:14:04;;;;;;;;;5.00;4.20;;;;;;;;5055967;28;8824;-76
2023/07/19 13:16:31;;;;;;;;;2.20;2.20;;;;;;;;5071004;28;8845;-73
2023/07/19 13:18:59;;;;;;;;;5.40;5.00;;;;;;;;5070803;28;8853;-73
2023/07/19 13:21:26;;;;;;;;;3.80;3.60;;;;;;;;5070802;28;8856;-75
2023/07/19 13:23:54;;;;;;;;;2.40;2.20;;;;;;;;5068390;28;8840;-78
2023/07/19 13:26:21;;;;;;;;;4.80;4.80;;;;;;;;5071475;28;9007;-77
2023/07/19 13:28:49;;;;;;;;;1.20;1.20;;;;;;;;5071715;28;8852;-75
2023/07/19 13:31:19;;;;;;;;;2.80;2.80;;;;;;;;5071462;28;8900;-82
2023/07/19 13:33:46;;;;;;;;;3.80;2.20;;;;;;;;5065482;28;8861;-80
2023/07/19 13:36:14;;;;;;;;;3.20;3.20;;;;;;;;5058325;28;8966;-83
2023/07/19 13:38:41;;;;;;;;;4.20;4.20;;;;;;;;5069313;28;8856;-81
2023/07/19 13:41:08;;;;;;;;;1.80;1.80;;;;;;;;5052508;28;8842;-78
2023/07/19 13:43:36;;;;;;;;;4.20;2.80;;;;;;;;5050506;28;8847;-78
2023/07/19 13:46:03;;;;;;;;;6.00;4.40;;;;;;;;5050195;28;8863;-76
2023/07/19 13:48:32;;;;;;;;;3.20;3.20;;;;;;;;5050085;28;8851;-79
2023/07/19 13:50:59;;;;;;;;;3.00;3.00;;;;;;;;5050261;28;8878;-79
2023/07/19 13:53:26;;;;;;;;;2.60;2.60;;;;;;;;5050314;28;8855;-75
2023/07/19 13:55:53;;;;;;;;;4.20;2.80;;;;;;;;5050100;28;8851;-78
2023/07/19 13:58:20;;;;;;;;;2.40;2.40;;;;;;;;5050074;28;8855;-74
2023/07/19 14:00:48;;;;;;;;;0.60;0.60;;;;;;;;5049466;28;8875;-79
2023/07/19 14:03:18;;;;;;;;;3.20;3.20;;;;;;;;5050065;28;8883;-78
2023/07/19 14:05:50;;;;;;;;;2.40;2.40;;;;;;;;5051160;28;9021;-79
2023/07/19 14:08:18;;;;;;;;;2.00;2.00;;;;;;;;5060580;28;8853;-75
2023/07/19 14:10:48;;;;;;;;;3.60;2.60;;;;;;;;5069764;28;8861;-75
2023/07/19 14:13:16;;;;;;;;;2.40;2.40;;;;;;;;5070164;28;8933;-84
2023/07/19 14:15:43;;;;;;;;;3.20;3.20;;;;;;;;5050459;28;8839;-82
2023/07/19 14:18:10;;;;;;;;;3.00;3.00;;;;;;;;5050269;28;8859;-87
2023/07/19 14:20:38;;;;;;;;;2.20;2.20;;;;;;;;5050828;28;8859;-83
2023/07/19 14:23:06;;;;;;;;;2.00;2.00;;;;;;;;5050012;28;8866;-86
2023/07/19 14:25:34;;;;;;;;;2.00;2.00;;;;;;;;5049517;28;8843;-83
2023/07/19 14:28:01;;;;;;;;;2.00;2.00;;;;;;;;5049418;28;8870;-82
2023/07/19 14:30:29;;;;;;;;;2.00;2.00;;;;;;;;5049294;28;8780;-85
2023/07/19 14:32:56;;;;;;;;;1.00;1.00;;;;;;;;5049992;28;8859;-81
2023/07/19 14:35:24;;;;;;;;;2.20;2.20;;;;;;;;5050244;28;8848;-76
2023/07/19 14:37:51;;;;;;;;;1.40;1.40;;;;;;;;5050302;28;8859;-80
2023/07/19 14:40:20;;;;;;;;;1.00;1.00;;;;;;;;5049993;28;8965;-81
2023/07/19 14:42:47;;;;;;;;;1.60;1.20;;;;;;;;5050211;28;9446;-79
2023/07/19 14:45:14;;;;;;;;;2.00;2.00;;;;;;;;5050251;28;8855;-80
2023/07/19 14:47:42;;;;;;;;;1.80;1.80;;;;;;;;5050060;28;8891;-83
2023/07/19 14:50:10;;;;;;;;;1.20;1.20;;;;;;;;5049577;28;8881;-82
2023/07/19 14:52:37;;;;;;;;;1.40;1.40;;;;;;;;5049795;28;8977;-80
2023/07/19 14:55:05;;;;;;;;;2.40;2.00;;;;;;;;5049191;28;8855;-84
2023/07/19 14:57:34;;;;;;;;;1.20;1.20;;;;;;;;5050376;28;8839;-80
2023/07/19 15:00:01;;;;;;;;;1.80;1.80;;;;;;;;5050142;28;8890;-82
2023/07/19 15:02:29;;;;;;;;;1.20;1.20;;;;;;;;5049584;28;8803;-81